Tropical Cyclones
[Index]
Main Index Home Page Stock Weather Photos Extreme Storms Discussion Storm News and Storm Chasing Reports Tropical Cyclones / Hurricanes / Typhoons Weather Data and Links Wild Fires / Bushfires Weather Observation Techniques Weather Picture Catalogue Tornado Pictures and Reports Stock Video Footage and DVDs for sale
Season 2010-2011 Tropical Cyclone 201120 Track Map
Season 2010-2011 Summaries (Operational Data): [AU] [SIO] [SPAC] [SH]
<<- Previous TC | 2010-2011 Season | Next TC ->>

click for intensity scale information  Lat/long Grid: Show Hide

 Date Labels: Show Hide

Operational Tropical Cyclone Data : JTWC Advisories | BoM Warnings

Name: 201120
Number: 1120

30 Mar 2011 00:00 UTC to 04 Apr 2011 12:00 UTC

    date/time    lat    long     hPa   cat  kts
2011-03-30 00   10.7   132.5    1004         20          
2011-03-30 06   10.6   132.3    1001         20          
2011-03-30 12   10.6   131.8    1002         20          
2011-03-30 18   10.6   131.5    1002         20          
2011-03-31 00   11.0   130.9    1002         25          
2011-03-31 06   11.2   130.5    1000         25          
2011-03-31 12   12.2   131.0    1000         25          
2011-03-31 18   12.4   130.4     999         25          
2011-04-01 00   11.9   129.7    1001         25          
2011-04-01 06   12.2   129.1     998         25          
2011-04-01 12   12.5   129.1    1000         25          
2011-04-01 18   13.3   128.8     999         25          
2011-04-02 00   13.5   127.6     998         30          
2011-04-02 06   13.8   127.0     995         30          
2011-04-02 12   14.0   126.6     994         30          
2011-04-02 18   14.2   125.9     994         30          
2011-04-03 00   14.6   125.3     998         25          
2011-04-03 06   15.1   124.9     996         25          
2011-04-03 12   15.6   124.5     998         25          
2011-04-03 18   16.0   124.1    1000         25          
2011-04-04 00   16.2   123.7    1000         25          
2011-04-04 06   15.7   123.0    1002         20          
2011-04-04 12   16.3   122.4                 18          
Winds are 10-min average.

Tropical cyclone tracks developed by Michael Bath using operational warnings and advisories and Google Maps.


[Australian Severe Weather index] [Copyright Notice] [Email Contacts] [Search This Site] [Privacy Policy]
Document: tropical_cyclone_201120.htm Updated: 2 May 2017